METAR AND TAF INFORMATION
METAR FOR EKVG
ADDS - METARS form results

(0600 UTC 23 May 2019)
Data provider http://aviationweather.gov/metar/data/
 
METAR text: EKVG 230550Z AUTO 34020KT 9999NDV -SHRA SCT009/// BKN050/// 06/05 Q1011 RMK BKN006/// WIND SKEID 36041KT
Conditions at: EKVG (SORVAAG/VAGAR , DK) observed 0550 UTC 23 May 2019
Temperature: 6.0°C (43°F)
Dewpoint: 5.0°C (41°F) [RH = 93%]
Pressure (altimeter): 29.85 inches Hg (1011.0 mb)
Winds: from the NNW (340 degrees) at 23 MPH (20 knots; 10.3 m/s)
Visibility: missing
Ceiling: 5000 feet AGL
Clouds: scattered clouds at 900 feet AGL
broken clouds at 5000 feet AGL
Weather: -SHRA  (light rain showers)

METAR text: EKVG 230520Z AUTO 34021KT 9999NDV -SHRA BKN010/// 06/05 Q1011 RMK BKN005/// WIND SKEID 36032G51KT
Conditions at: EKVG (SORVAAG/VAGAR , DK) observed 0520 UTC 23 May 2019
Temperature: 6.0°C (43°F)
Dewpoint: 5.0°C (41°F) [RH = 93%]
Pressure (altimeter): 29.85 inches Hg (1011.0 mb)
Winds: from the NNW (340 degrees) at 24 MPH (21 knots; 10.8 m/s)
Visibility: missing
Ceiling: 1000 feet AGL
Clouds: broken clouds at 1000 feet AGL
Weather: -SHRA  (light rain showers)

Forecast for: EKVG (SORVAAG/VAGAR , DK)
Text: TAF EKVG 230452Z 2306/2315 36020KT 9999 -RA BKN012
Forecast period: 0600 to 1500 UTC 23 May 2019
Forecast type: FROM: standard forecast or significant change
Winds: from the N (360 degrees) at 23 MPH (20 knots; 10.3 m/s)
Visibility: 6 or more miles 10+ km)
Ceiling: 1200 feet AGL
Clouds: broken clouds at 1200 feet AGL
Weather: -RA  (light rain)
Text: TEMPO 2306/2315 36020G32KT RADZ BKN005
Forecast period: 0600 to 1500 UTC 23 May 2019
Forecast type: TEMPORARY: The following changes expected for less than half the time period
Winds: from the N (360 degrees) at 23 MPH (20 knots; 10.3 m/s)
gusting to 37 MPH (32 knots; 16.5 m/s)
Visibility: missing
Ceiling: 500 feet AGL
Clouds: broken clouds at 500 feet AGL
Weather: RA DZ  (moderate rain, moderate drizzle)

 AIRPORT MAP

 RUNWAY INFORMATION
Runway 13 Runway length 5902 ft Runway width 98 ft
Runway elevation 268 ft Runway displaced threshold 0 ft Runway heading 118
Runway 31 Runway length 5902 ft Runway width 98 ft
Runway elevation 252 ft Runway displaced threshold 0 ft Runway heading 298

 AIRPORT FREQUENCIES
Type AFIS Name AFIS Frequency 124.85 MHZ

 AIRPORT NEAR NAVIGATION AIDS
Type NDB Name Myggenes Frequency 337 KHZ
Type NDB Name Nolso Frequency 404 KHZ
Type NDB Name Vagar Frequency 348 KHZ



Powered by Virtual Airlines Manager [v2.6.2]